Time;durP1;ratioP1;P1;durP2;ratioP2;P2;SDS_P1;SDS_P2;PMS_P1;PMS_P2;Temp;Humidity;BMP_temperature;BMP_pressure;BME280_temperature;BME280_humidity;BME280_pressure;Samples;Min_cycle;Max_cycle;Signal;HPM_P1;HPM_P2
2022/06/04 00:01:43;;;;;;;4.55;3.20;;;;;;;14.38;84.29;101170.09;4887777;29;20490;-79
2022/06/04 00:04:14;;;;;;;5.50;4.00;;;;;;;14.32;84.66;101178.22;4860151;29;20063;-80
2022/06/04 00:06:42;;;;;;;5.00;3.28;;;;;;;14.28;83.92;101172.09;4889499;29;20059;-79
2022/06/04 00:09:10;;;;;;;3.97;3.30;;;;;;;14.27;84.45;101175.69;4845415;29;20108;-78
2022/06/04 00:17:06;;;;;;;5.10;3.78;;;;;;;14.18;83.12;101172.41;4878721;29;20072;-79
2022/06/04 00:19:33;;;;;;;5.75;3.92;;;;;;;14.17;84.27;101160.91;4865747;29;20043;-80
2022/06/04 00:22:03;;;;;;;6.53;3.90;;;;;;;14.07;83.67;101173.56;4877867;29;20905;-79
2022/06/04 00:24:30;;;;;;;5.70;3.08;;;;;;;14.06;84.92;101166.53;4858458;29;20660;-79
2022/06/04 00:26:59;;;;;;;4.30;3.38;;;;;;;14.14;84.48;101168.09;4862601;29;20487;-79
2022/06/04 00:29:26;;;;;;;6.72;4.25;;;;;;;14.17;85.53;101157.38;4861268;29;20033;-80
2022/06/04 00:31:53;;;;;;;4.88;3.60;;;;;;;14.08;82.59;101163.81;4848469;29;20066;-78
2022/06/04 00:34:20;;;;;;;5.25;3.35;;;;;;;14.06;84.28;101161.22;4822774;29;20049;-78
2022/06/04 00:36:46;;;;;;;5.07;3.55;;;;;;;14.14;82.97;101168.09;4846434;29;20124;-79
2022/06/04 00:39:13;;;;;;;5.18;3.47;;;;;;;14.11;84.16;101157.53;4859672;29;20044;-78
2022/06/04 00:41:54;;;;;;;4.97;3.30;;;;;;;14.11;85.22;101163.72;4845309;29;20045;-80
2022/06/04 00:44:29;;;;;;;7.35;4.03;;;;;;;14.05;85.15;101158.59;4842709;29;20049;-77
2022/06/04 00:47:07;;;;;;;5.68;3.38;;;;;;;14.05;86.30;101164.78;4852005;29;20072;-77
2022/06/04 00:49:35;;;;;;;5.05;3.75;;;;;;;14.13;83.36;101156.59;4826230;29;20052;-77
2022/06/04 00:52:05;;;;;;;5.97;3.53;;;;;;;14.08;84.00;101164.69;4845279;29;20056;-80
2022/06/04 00:54:32;;;;;;;6.25;4.30;;;;;;;14.11;82.16;101165.50;4858939;29;20092;-78
2022/06/04 00:57:29;;;;;;;5.18;3.83;;;;;;;14.13;83.56;101163.72;4858529;29;20049;-78
2022/06/04 01:00:11;;;;;;;5.38;3.95;;;;;;;14.07;83.34;101154.09;4845184;29;20041;-79
2022/06/04 01:03:07;;;;;;;5.63;4.57;;;;;;;14.00;83.97;101155.19;4869759;29;20044;-78
2022/06/04 01:06:11;;;;;;;5.22;3.67;;;;;;;14.02;83.32;101156.00;4852264;29;20045;-79
2022/06/04 01:08:56;;;;;;;7.22;3.53;;;;;;;14.10;82.77;101151.34;4861361;29;20049;-77
2022/06/04 01:14:54;;;;;;;6.65;4.10;;;;;;;14.01;83.44;101146.28;4847696;29;20461;-79
2022/06/04 01:17:29;;;;;;;6.57;3.88;;;;;;;13.98;82.75;101144.59;4876752;29;20052;-79
2022/06/04 01:19:59;;;;;;;5.05;3.35;;;;;;;13.96;82.05;101141.13;4864863;29;20051;-79
2022/06/04 01:22:33;;;;;;;5.00;3.45;;;;;;;13.99;82.35;101149.00;4840360;29;20042;-79
2022/06/04 01:25:12;;;;;;;5.25;3.55;;;;;;;13.92;83.61;101144.75;4839901;29;20436;-77
2022/06/04 01:28:00;;;;;;;7.20;4.50;;;;;;;13.86;81.63;101142.25;4827408;29;20109;-79
2022/06/04 01:30:34;;;;;;;7.35;3.97;;;;;;;13.92;80.64;101147.41;4844030;29;20135;-78
2022/06/04 01:33:08;;;;;;;5.30;4.13;;;;;;;13.93;81.09;101135.88;4860452;29;20049;-77
2022/06/04 01:35:44;;;;;;;4.53;3.90;;;;;;;13.89;80.52;101142.19;4856412;29;20049;-79
2022/06/04 01:38:28;;;;;;;5.55;4.00;;;;;;;13.89;80.01;101146.63;4841082;29;20056;-77
2022/06/04 01:41:07;;;;;;;4.85;3.67;;;;;;;13.92;78.80;101152.72;4858711;29;20037;-78
2022/06/04 01:43:49;;;;;;;4.75;3.80;;;;;;;13.96;77.69;101156.19;4874893;29;20834;-78
2022/06/04 01:46:25;;;;;;;6.38;3.90;;;;;;;13.91;79.74;101155.44;4839512;29;20074;-78
2022/06/04 01:48:56;;;;;;;6.30;3.53;;;;;;;13.86;77.91;101155.53;4855721;29;20064;-80
2022/06/04 01:51:25;;;;;;;6.97;3.85;;;;;;;13.85;77.77;101158.22;4846612;29;20037;-77
2022/06/04 01:53:59;;;;;;;5.65;3.67;;;;;;;13.80;78.47;101167.22;4866530;29;20060;-79
2022/06/04 01:56:35;;;;;;;3.80;3.22;;;;;;;13.86;79.19;101150.22;4873967;29;20045;-79
2022/06/04 01:59:09;;;;;;;3.92;3.40;;;;;;;13.92;77.06;101150.06;4844454;29;20053;-79
2022/06/04 02:01:35;;;;;;;6.90;3.60;;;;;;;13.90;77.52;101143.94;4851980;29;20468;-78
2022/06/04 02:04:08;;;;;;;4.50;3.13;;;;;;;13.80;78.72;101148.63;4860294;29;20061;-78
2022/06/04 02:07:29;;;;;;;5.68;3.85;;;;;;;13.76;79.05;101123.03;4848673;29;20442;-79
2022/06/04 02:10:05;;;;;;;4.90;3.60;;;;;;;13.85;76.02;101134.34;4845754;29;20040;-78
2022/06/04 02:12:33;;;;;;;6.07;3.47;;;;;;;13.83;77.48;101125.53;4854176;29;20052;-79
2022/06/04 02:15:06;;;;;;;4.43;3.25;;;;;;;13.77;78.38;101131.88;4858844;29;20529;-79
2022/06/04 02:17:33;;;;;;;4.93;3.47;;;;;;;13.64;77.48;101135.78;4853038;29;20075;-79
2022/06/04 02:20:00;;;;;;;9.68;4.10;;;;;;;13.59;78.71;101137.66;4870856;23;20103;-81
2022/06/04 02:22:27;;;;;;;5.35;3.55;;;;;;;13.50;79.52;101131.66;4890433;29;20060;-81
2022/06/04 02:24:54;;;;;;;4.30;3.20;;;;;;;13.52;79.84;101123.66;4859717;29;20033;-80
2022/06/04 02:27:20;;;;;;;4.82;3.05;;;;;;;13.46;79.40;101121.19;4874771;29;20048;-81
2022/06/04 02:29:47;;;;;;;6.97;3.58;;;;;;;13.41;79.74;101123.06;4857788;29;20037;-81
2022/06/04 02:32:34;;;;;;;3.55;3.05;;;;;;;13.36;79.08;101131.13;4856422;29;20045;-80
2022/06/04 02:35:10;;;;;;;4.63;3.30;;;;;;;13.38;79.98;101132.00;4856148;29;20131;-81
2022/06/04 02:37:43;;;;;;;3.85;3.35;;;;;;;13.27;81.26;101130.47;4872531;29;20059;-82
2022/06/04 02:56:02;;;;;;;4.45;3.30;;;;;;;13.28;80.32;101132.22;4838251;29;20042;-80
2022/06/04 02:58:30;;;;;;;6.45;3.10;;;;;;;13.20;81.57;101128.00;4841876;29;20045;-80
2022/06/04 03:00:57;;;;;;;5.38;2.95;;;;;;;13.23;81.18;101127.06;4852361;29;20254;-80
2022/06/04 03:03:25;;;;;;;4.47;3.33;;;;;;;13.22;80.51;101130.63;4874072;29;20041;-80
2022/06/04 03:06:00;;;;;;;5.03;3.13;;;;;;;13.20;81.43;101125.34;4872142;29;20045;-80
2022/06/04 03:08:30;;;;;;;5.22;3.50;;;;;;;13.28;81.58;101130.44;4843481;29;20433;-82
2022/06/04 03:10:57;;;;;;;5.47;2.95;;;;;;;13.33;79.68;101140.97;4864398;29;20233;-80
2022/06/04 03:13:23;;;;;;;4.97;2.88;;;;;;;13.40;79.37;101146.09;4855147;29;20045;-81
2022/06/04 03:15:51;;;;;;;6.38;3.60;;;;;;;13.29;79.98;101129.56;4859169;29;20508;-81
2022/06/04 03:18:18;;;;;;;5.45;3.05;;;;;;;13.32;79.53;101134.78;4839111;29;20073;-81
2022/06/04 03:20:45;;;;;;;3.22;2.90;;;;;;;13.35;81.15;101129.38;4840381;29;20052;-81
2022/06/04 03:23:15;;;;;;;3.97;3.10;;;;;;;13.32;81.53;101137.44;4868020;29;20045;-80
2022/06/04 03:25:41;;;;;;;3.47;2.72;;;;;;;13.41;81.02;101139.00;4855363;29;20040;-81
2022/06/04 03:28:08;;;;;;;5.32;3.95;;;;;;;13.37;80.20;101135.56;4859260;29;20045;-80
2022/06/04 03:30:35;;;;;;;6.28;3.50;;;;;;;13.42;80.75;101141.59;4822819;29;20063;-80
2022/06/04 03:33:03;;;;;;;3.92;2.75;;;;;;;13.46;79.20;101142.41;4869043;29;20053;-81
2022/06/04 03:35:30;;;;;;;4.95;3.03;;;;;;;13.47;78.76;101139.72;4868670;29;20041;-80
2022/06/04 03:37:56;;;;;;;5.25;3.60;;;;;;;13.45;78.10;101146.88;4864736;29;20060;-80
2022/06/04 03:40:23;;;;;;;4.75;3.30;;;;;;;13.49;75.75;101145.84;4853386;29;20049;-80
2022/06/04 03:42:53;;;;;;;5.57;3.85;;;;;;;13.57;75.04;101145.66;4844185;29;20052;-80
2022/06/04 03:45:26;;;;;;;6.20;3.40;;;;;;;13.56;75.88;101143.94;4853410;29;20045;-80
2022/06/04 03:47:55;;;;;;;6.22;3.30;;;;;;;13.64;75.34;101144.63;4860548;29;20059;-80
2022/06/04 03:50:25;;;;;;;5.18;3.13;;;;;;;13.66;76.62;101152.53;4874657;29;20045;-80
2022/06/04 03:52:52;;;;;;;4.00;3.30;;;;;;;13.64;75.60;101155.22;4832695;29;20171;-81
2022/06/04 03:55:19;;;;;;;4.85;3.03;;;;;;;13.71;75.87;101169.22;4832274;29;20216;-80
2022/06/04 03:57:52;;;;;;;3.67;2.80;;;;;;;13.65;75.07;101164.94;4845111;29;20053;-80
2022/06/04 04:00:28;;;;;;;3.25;2.88;;;;;;;13.67;74.57;101164.91;4862389;29;20507;-80
2022/06/04 04:03:11;;;;;;;4.30;3.17;;;;;;;13.67;76.12;101163.09;4853650;29;20060;-80
2022/06/04 04:05:44;;;;;;;5.18;3.58;;;;;;;13.70;75.77;101172.78;4877916;29;20072;-80
2022/06/04 04:08:11;;;;;;;4.03;2.63;;;;;;;13.72;76.30;101160.34;4870588;29;20073;-80
2022/06/04 04:10:42;;;;;;;29.65;6.80;;;;;;;13.85;73.51;101160.88;4852742;29;20090;-80
2022/06/04 04:13:11;;;;;;;5.22;2.75;;;;;;;13.80;73.50;101175.19;4846964;29;20426;-81
2022/06/04 04:15:38;;;;;;;3.20;2.78;;;;;;;13.74;73.78;101169.16;4862200;29;20128;-80
2022/06/04 04:18:06;;;;;;;3.58;2.42;;;;;;;13.78;72.81;101168.13;4860433;29;20049;-80
2022/06/04 04:20:35;;;;;;;3.83;2.53;;;;;;;13.87;74.42;101167.91;4860862;29;20109;-81
2022/06/04 04:23:05;;;;;;;3.13;2.47;;;;;;;13.88;75.02;101167.00;4853592;29;20053;-80
2022/06/04 04:25:33;;;;;;;3.83;2.22;;;;;;;13.91;74.55;101177.56;4848363;29;20109;-79
2022/06/04 04:28:03;;;;;;;5.00;2.65;;;;;;;14.00;71.90;101174.66;4871326;29;20041;-80
2022/06/04 04:30:32;;;;;;;2.40;2.00;;;;;;;14.06;71.17;101170.97;4865918;29;20041;-81
2022/06/04 04:32:59;;;;;;;3.33;2.83;;;;;;;14.05;72.12;101171.88;4879528;29;20053;-81
2022/06/04 04:35:29;;;;;;;2.97;2.30;;;;;;;14.06;73.36;101160.34;4832861;29;20053;-81
2022/06/04 04:37:56;;;;;;;2.97;2.00;;;;;;;14.14;72.72;101155.69;4863996;29;20076;-81
2022/06/04 04:40:26;;;;;;;3.92;2.20;;;;;;;14.15;73.29;101160.09;4851577;29;20041;-80
2022/06/04 04:42:53;;;;;;;5.88;2.30;;;;;;;14.21;71.43;101151.97;4866863;29;20040;-81
2022/06/04 04:45:22;;;;;;;2.83;2.53;;;;;;;14.24;72.55;101151.88;4895920;29;20053;-80
2022/06/04 04:47:50;;;;;;;3.95;2.25;;;;;;;14.26;71.57;101157.13;4865127;29;20045;-80
2022/06/04 04:50:30;;;;;;;3.10;2.30;;;;;;;14.30;71.19;101161.47;4838970;29;20045;-80
2022/06/04 04:52:57;;;;;;;2.92;2.20;;;;;;;14.29;71.47;101157.94;4878606;29;20089;-80
2022/06/04 04:55:32;;;;;;;4.18;2.70;;;;;;;14.36;71.54;101161.25;4864570;29;20045;-80
2022/06/04 04:58:02;;;;;;;2.95;2.72;;;;;;;14.41;69.87;101158.50;4879676;29;20051;-80
2022/06/04 05:00:29;;;;;;;3.25;2.50;;;;;;;14.34;71.61;101168.41;4853620;29;20459;-81
2022/06/04 05:02:57;;;;;;;3.88;2.50;;;;;;;14.42;72.41;101166.41;4849945;29;20073;-80
2022/06/04 05:05:24;;;;;;;3.30;1.92;;;;;;;14.46;72.90;101164.56;4875571;29;20636;-80
2022/06/04 05:07:51;;;;;;;2.90;2.25;;;;;;;14.57;71.58;101168.69;4876342;29;20109;-80
2022/06/04 05:10:18;;;;;;;3.00;2.20;;;;;;;14.49;70.99;101162.72;4866088;29;20498;-81
2022/06/04 05:12:44;;;;;;;3.50;1.95;;;;;;;14.57;73.97;101163.38;4866009;29;20049;-81
2022/06/04 05:15:11;;;;;;;2.75;1.90;;;;;;;14.59;72.08;101153.53;4860094;29;20060;-81
2022/06/04 05:17:38;;;;;;;2.90;2.60;;;;;;;14.67;70.71;101158.63;4830472;29;20325;-81
2022/06/04 05:20:05;;;;;;;3.10;2.17;;;;;;;14.76;69.72;101161.03;4873514;29;20494;-80
2022/06/04 05:22:32;;;;;;;3.20;2.00;;;;;;;14.85;70.47;101160.75;4876426;29;20039;-81
2022/06/04 05:25:03;;;;;;;4.40;2.70;;;;;;;14.95;67.83;101168.44;4860563;29;20037;-81
2022/06/04 05:27:39;;;;;;;3.03;2.03;;;;;;;14.99;68.50;101163.00;4844104;29;20045;-80
2022/06/04 05:30:24;;;;;;;2.30;1.80;;;;;;;15.11;68.78;101165.28;4849930;29;20051;-79
2022/06/04 05:32:50;;;;;;;2.92;1.90;;;;;;;15.12;66.56;101156.38;4844361;29;20447;-81
2022/06/04 05:35:17;;;;;;;3.25;1.95;;;;;;;15.36;66.86;101152.06;4848215;29;20065;-81
2022/06/04 05:37:44;;;;;;;7.22;2.85;;;;;;;15.57;63.73;101157.63;4863832;29;20049;-81
2022/06/04 05:40:16;;;;;;;2.95;2.15;;;;;;;16.42;62.47;101151.97;4869044;29;20045;-80
2022/06/04 05:43:28;;;;;;;2.97;1.83;;;;;;;17.71;55.50;101153.16;4840559;29;20041;-78
2022/06/04 05:46:42;;;;;;;2.30;1.98;;;;;;;18.15;53.73;101156.59;4883633;29;20523;-79
2022/06/04 05:49:16;;;;;;;3.05;2.00;;;;;;;18.51;53.89;101163.94;4878073;29;20037;-80
2022/06/04 05:51:43;;;;;;;3.53;2.05;;;;;;;19.16;52.44;101157.31;4874013;29;20530;-80
2022/06/04 05:54:11;;;;;;;3.00;1.90;;;;;;;20.10;51.22;101162.47;4844641;29;20075;-81
2022/06/04 05:56:42;;;;;;;2.63;1.90;;;;;;;20.74;47.56;101167.09;4849605;29;20100;-79
2022/06/04 05:59:11;;;;;;;2.70;2.33;;;;;;;20.96;46.49;101172.16;4873849;29;20104;-78
2022/06/04 06:01:39;;;;;;;2.50;1.85;;;;;;;19.92;48.52;101174.97;4850880;29;20396;-81
2022/06/04 06:04:08;;;;;;;3.55;2.00;;;;;;;19.61;50.10;101180.16;4855257;29;20565;-81
2022/06/04 06:06:38;;;;;;;2.45;1.80;;;;;;;19.48;51.21;101179.84;4877709;29;20040;-81
2022/06/04 06:09:12;;;;;;;3.10;2.13;;;;;;;19.22;52.31;101189.16;4862549;29;20267;-81
2022/06/04 06:11:42;;;;;;;2.10;1.90;;;;;;;18.60;52.57;101192.06;4866647;29;20162;-82
2022/06/04 06:14:10;;;;;;;4.78;2.10;;;;;;;18.54;55.22;101187.84;4849017;29;20061;-81
2022/06/04 06:16:43;;;;;;;3.35;2.08;;;;;;;18.51;54.65;101191.56;4871664;29;20067;-81
2022/06/04 06:19:11;;;;;;;4.40;2.33;;;;;;;18.52;54.27;101190.59;4836743;29;20041;-81
2022/06/04 06:21:38;;;;;;;4.18;2.22;;;;;;;18.48;52.76;101189.00;4866155;29;20045;-81
2022/06/04 06:24:12;;;;;;;2.60;2.05;;;;;;;18.31;55.42;101196.03;4865076;29;20037;-81
2022/06/04 06:30:27;;;;;;;3.95;2.20;;;;;;;17.96;53.58;101191.28;4876267;29;20423;-81
2022/06/04 06:32:58;;;;;;;1.90;1.70;;;;;;;18.38;54.70;101181.44;4850905;29;20055;-81
2022/06/04 06:35:25;;;;;;;2.20;1.95;;;;;;;18.81;53.41;101185.75;4840209;29;20081;-81
2022/06/04 06:37:52;;;;;;;2.55;1.88;;;;;;;18.97;51.49;101193.94;4850924;29;20067;-82
2022/06/04 06:40:22;;;;;;;9.38;2.78;;;;;;;19.28;51.72;101202.28;4858945;29;20513;-82
2022/06/04 06:42:52;;;;;;;13.68;3.78;;;;;;;19.16;49.33;101199.28;4861294;29;20120;-82
2022/06/04 06:45:37;;;;;;;3.92;1.90;;;;;;;19.18;50.27;101192.94;4857061;29;20467;-81
2022/06/04 06:48:08;;;;;;;3.08;1.95;;;;;;;19.50;48.19;101191.38;4833599;29;20044;-82
2022/06/04 06:50:39;;;;;;;3.65;2.10;;;;;;;19.74;48.75;101204.53;4844163;29;20059;-79
2022/06/04 06:53:09;;;;;;;2.58;1.50;;;;;;;20.38;47.99;101198.56;4860974;29;20049;-80
2022/06/04 06:55:41;;;;;;;5.60;1.95;;;;;;;20.40;46.79;101207.41;4831615;29;20048;-80
2022/06/04 06:58:10;;;;;;;2.78;1.70;;;;;;;20.51;46.12;101199.66;4851023;29;20045;-80
2022/06/04 07:00:39;;;;;;;2.40;1.63;;;;;;;20.59;44.92;101207.31;4862371;29;20052;-81
2022/06/04 07:03:06;;;;;;;4.07;1.60;;;;;;;20.73;46.19;101210.13;4886260;29;20096;-80
2022/06/04 07:05:34;;;;;;;4.07;1.77;;;;;;;20.32;46.24;101199.75;4860585;29;20048;-82
2022/06/04 07:08:00;;;;;;;2.20;1.60;;;;;;;20.44;48.15;101214.38;4848052;29;20045;-80
2022/06/04 07:10:27;;;;;;;2.75;1.90;;;;;;;20.49;45.00;101215.00;4824272;29;20056;-81
2022/06/04 07:12:54;;;;;;;2.58;1.85;;;;;;;20.48;47.27;101213.25;4826807;29;20069;-79
2022/06/04 07:15:22;;;;;;;2.65;1.70;;;;;;;20.20;46.41;101224.53;4860713;29;20549;-79
2022/06/04 07:17:49;;;;;;;114.15;18.30;;;;;;;20.05;46.85;101228.88;4851101;29;20059;-79
2022/06/04 07:20:16;;;;;;;11.73;3.85;;;;;;;19.92;48.15;101236.66;4868522;29;20238;-79
2022/06/04 07:22:42;;;;;;;18.63;4.18;;;;;;;20.11;49.00;101223.19;4865247;29;20045;-79
2022/06/04 07:25:09;;;;;;;94.55;14.35;;;;;;;20.36;49.80;101219.25;4859083;29;20064;-78
2022/06/04 07:27:36;;;;;;;4.97;2.13;;;;;;;20.70;47.38;101219.22;4847884;29;20053;-80
2022/06/04 07:30:03;;;;;;;2.85;1.42;;;;;;;21.06;46.41;101224.41;4860131;29;20194;-77
2022/06/04 07:32:29;;;;;;;5.53;2.10;;;;;;;21.27;45.76;101219.72;4879456;29;20048;-78
2022/06/04 07:34:56;;;;;;;2.70;1.80;;;;;;;20.93;45.39;101225.16;4866337;29;20089;-79
2022/06/04 07:37:23;;;;;;;4.15;1.70;;;;;;;20.72;46.45;101233.44;4873224;29;20254;-79
2022/06/04 07:39:50;;;;;;;4.15;1.90;;;;;;;20.94;46.20;101232.28;4835723;29;20044;-78
2022/06/04 07:42:17;;;;;;;2.15;1.60;;;;;;;20.98;47.15;101239.22;4844557;29;20057;-80
2022/06/04 07:44:44;;;;;;;2.55;1.60;;;;;;;20.75;47.12;101240.44;4842652;29;20046;-78
2022/06/04 07:47:12;;;;;;;16.60;4.07;;;;;;;20.60;48.29;101242.16;4844841;29;20048;-79
2022/06/04 07:49:39;;;;;;;3.60;2.10;;;;;;;20.47;48.06;101246.41;4877909;29;20044;-80
2022/06/04 07:52:05;;;;;;;4.20;2.03;;;;;;;20.57;47.13;101247.66;4880776;29;20045;-79
2022/06/04 07:54:34;;;;;;;16.52;4.60;;;;;;;20.58;48.45;101237.78;4861355;29;20045;-81
2022/06/04 07:57:02;;;;;;;5.93;2.17;;;;;;;20.62;48.59;101240.25;4859221;29;20074;-78
2022/06/04 07:59:29;;;;;;;2.75;1.70;;;;;;;21.00;48.48;101237.31;4866441;29;20049;-79
2022/06/04 08:01:55;;;;;;;2.13;1.65;;;;;;;21.58;48.20;101244.84;4825149;29;20490;-79
2022/06/04 08:04:22;;;;;;;3.45;2.13;;;;;;;21.74;45.64;101248.38;4844691;29;20422;-78
2022/06/04 08:06:49;;;;;;;238.90;33.92;;;;;;;22.04;45.00;101250.25;4879443;29;20041;-80
2022/06/04 08:09:15;;;;;;;4.13;1.77;;;;;;;22.32;43.88;101244.97;4860164;29;20045;-80
2022/06/04 08:11:42;;;;;;;2.42;1.77;;;;;;;21.74;45.98;101255.59;4848736;29;20499;-80
2022/06/04 08:14:13;;;;;;;2.72;2.17;;;;;;;21.97;45.76;101249.75;4872365;29;20141;-81
2022/06/04 08:16:43;;;;;;;2.03;1.83;;;;;;;21.90;46.23;101249.22;4861165;29;20055;-80
2022/06/04 08:19:10;;;;;;;2.75;2.28;;;;;;;22.04;48.35;101255.63;4864916;29;20049;-79
2022/06/04 08:21:38;;;;;;;4.18;2.45;;;;;;;21.73;46.50;101262.78;4844966;29;20052;-79
2022/06/04 08:24:06;;;;;;;3.05;1.80;;;;;;;21.69;48.33;101253.13;4861856;29;20041;-82
2022/06/04 08:26:33;;;;;;;3.95;2.22;;;;;;;21.69;47.03;101260.34;4875443;29;20045;-81
2022/06/04 08:28:59;;;;;;;3.35;2.15;;;;;;;;;;4844941;29;20041;-80
2022/06/04 08:31:27;;;;;;;2.83;2.10;;;;;;;22.25;46.36;101251.69;4851474;29;20045;-80
2022/06/04 08:33:55;;;;;;;2.67;2.03;;;;;;;22.63;46.03;101249.38;4849685;29;20415;-79
2022/06/04 08:36:22;;;;;;;3.35;2.20;;;;;;;23.13;46.25;101241.81;4859731;29;20511;-81
2022/06/04 08:38:49;;;;;;;3.90;2.25;;;;;;;23.38;44.64;101244.69;4849326;29;20273;-81
2022/06/04 08:41:49;;;;;;;3.75;2.17;;;;;;;23.18;45.18;101247.75;4867045;29;20447;-81
2022/06/04 08:44:23;;;;;;;2.38;2.00;;;;;;;23.43;44.47;101242.53;4841038;29;20439;-81
2022/06/04 08:46:52;;;;;;;;;;;;;;;23.52;43.86;101251.84;4844097;29;20072;-80
2022/06/04 08:49:32;;;;;;;4.50;2.88;;;;;;;23.42;44.19;101248.88;4859293;29;19924;-80
2022/06/04 08:52:01;;;;;;;3.03;2.45;;;;;;;23.69;44.92;101251.63;4878063;29;20041;-83
2022/06/04 08:57:32;;;;;;;3.10;2.15;;;;;;;23.34;44.17;101248.50;4845917;29;20396;-81
2022/06/04 09:00:10;;;;;;;7.20;2.25;;;;;;;23.86;45.46;101255.91;4874807;29;20443;-81
2022/06/04 09:02:52;;;;;;;2.90;2.15;;;;;;;24.54;41.86;101253.09;4860145;29;20518;-84
2022/06/04 09:05:22;;;;;;;3.42;2.22;;;;;;;24.79;41.67;101260.34;4856821;29;20061;-82
2022/06/04 09:07:54;;;;;;;3.47;2.55;;;;;;;24.19;42.24;101254.63;4862243;29;20053;-83
2022/06/04 09:10:24;;;;;;;3.15;2.03;;;;;;;23.78;44.11;101261.81;4875821;29;20129;-81
2022/06/04 09:12:58;;;;;;;56.63;9.35;;;;;;;23.91;43.57;101267.28;4844009;29;20048;-80
2022/06/04 09:15:31;;;;;;;3.78;2.30;;;;;;;24.20;44.30;101275.25;4875132;29;20545;-79
2022/06/04 09:17:59;;;;;;;3.35;2.13;;;;;;;23.71;43.34;101284.81;4863571;29;20362;-81
2022/06/04 09:20:37;;;;;;;2.13;1.80;;;;;;;23.94;43.59;101280.56;4863455;29;20048;-81
2022/06/04 09:23:35;;;;;;;2.53;2.15;;;;;;;24.33;43.40;101276.19;4871307;29;20040;-80
2022/06/04 09:26:33;;;;;;;2.63;2.28;;;;;;;24.33;42.36;101284.28;4861718;29;20076;-82
2022/06/04 09:29:14;;;;;;;5.10;2.25;;;;;;;24.26;42.12;101281.09;4863657;29;20044;-83
2022/06/04 09:31:55;;;;;;;2.70;1.95;;;;;;;24.30;44.63;101284.44;4855476;29;20052;-82
2022/06/04 09:34:26;;;;;;;4.22;2.08;;;;;;;24.58;42.94;101287.03;4875295;29;20052;-81
2022/06/04 09:36:53;;;;;;;3.13;2.25;;;;;;;24.59;43.00;101288.75;4844588;29;20048;-80
2022/06/04 09:39:33;;;;;;;5.90;2.58;;;;;;;24.64;42.14;101283.91;4862314;29;20049;-81
2022/06/04 09:42:06;;;;;;;18.38;4.53;;;;;;;25.11;43.60;101289.66;4863615;29;20476;-80
2022/06/04 09:44:37;;;;;;;12.50;2.63;;;;;;;25.49;40.89;101293.19;4860945;29;20052;-80
2022/06/04 09:47:20;;;;;;;3.72;1.88;;;;;;;25.84;37.91;101278.94;4875356;29;20052;-79
2022/06/04 09:49:54;;;;;;;7.00;2.70;;;;;;;25.60;38.66;101297.81;4865291;29;20073;-80
2022/06/04 09:52:26;;;;;;;2.47;1.75;;;;;;;24.89;38.97;101302.00;4865837;29;20052;-80
2022/06/04 09:55:06;;;;;;;2.78;1.98;;;;;;;25.12;39.09;101303.06;4834164;29;20052;-78
2022/06/04 09:57:35;;;;;;;3.38;2.22;;;;;;;25.43;39.93;101311.69;4879513;29;20056;-79
2022/06/04 10:00:06;;;;;;;92.13;14.88;;;;;;;25.33;40.44;101306.09;4840813;29;20128;-80
2022/06/04 10:02:33;;;;;;;4.40;1.95;;;;;;;25.64;37.66;101298.44;4828263;29;20053;-78
2022/06/04 10:05:06;;;;;;;2.78;1.98;;;;;;;25.25;37.68;101297.66;4871357;29;20119;-80
2022/06/04 10:07:38;;;;;;;4.78;2.10;;;;;;;25.48;37.78;101299.59;4872277;29;20068;-79
2022/06/04 10:10:34;;;;;;;2.25;2.10;;;;;;;26.16;37.99;101305.44;4866425;29;21060;-78
2022/06/04 10:15:59;;;;;;;31.63;6.70;;;;;;;26.63;34.88;101307.22;4879934;29;20410;-80
2022/06/04 10:18:32;;;;;;;3.63;2.15;;;;;;;25.60;35.68;101314.03;4841036;29;20056;-81
2022/06/04 10:21:20;;;;;;;1.83;1.70;;;;;;;25.66;35.44;101307.31;4866668;29;20043;-80
2022/06/04 10:23:54;;;;;;;4.10;1.92;;;;;;;25.20;36.37;101314.22;4862739;29;20144;-78
2022/06/04 10:26:54;;;;;;;2.35;1.70;;;;;;;24.69;37.39;101310.59;4840296;29;20064;-80
2022/06/04 10:29:42;;;;;;;2.58;2.20;;;;;;;24.80;38.58;101307.16;4835830;29;20427;-80
2022/06/04 10:32:33;;;;;;;3.08;2.20;;;;;;;25.35;37.43;101306.84;4891079;29;20668;-80
2022/06/04 10:35:50;;;;;;;4.60;2.15;;;;;;;25.57;36.91;101314.28;4882522;29;20139;-81
2022/06/04 10:38:45;;;;;;;2.65;1.73;;;;;;;25.76;36.17;101316.53;4827539;29;20475;-80
2022/06/04 10:41:44;;;;;;;2.63;2.00;;;;;;;25.52;37.63;101314.59;4874210;23;20049;-81
2022/06/04 10:44:34;;;;;;;10.52;2.78;;;;;;;25.51;36.39;101307.47;4831215;29;20057;-82
2022/06/04 10:47:21;;;;;;;2.75;1.60;;;;;;;25.51;36.61;101322.84;4886563;29;20028;-81
2022/06/04 10:49:56;;;;;;;31.58;6.75;;;;;;;25.61;37.30;101315.78;4855856;29;20049;-81
2022/06/04 10:52:39;;;;;;;3.58;2.63;;;;;;;25.79;37.16;101306.31;4887603;29;20104;-80
2022/06/04 10:55:30;;;;;;;2.00;1.80;;;;;;;25.41;35.83;101314.53;4841716;29;20074;-81
2022/06/04 10:58:25;;;;;;;3.65;1.90;;;;;;;25.40;37.83;101301.13;4846704;29;20037;-81
2022/06/04 11:01:20;;;;;;;2.53;1.88;;;;;;;26.08;36.20;101304.16;4841828;29;20093;-81
2022/06/04 11:03:57;;;;;;;2.35;2.00;;;;;;;25.62;35.85;101300.41;4860296;29;20546;-81
2022/06/04 11:06:34;;;;;;;2.90;2.08;;;;;;;25.33;36.52;101297.13;4857730;29;20053;-81
2022/06/04 11:09:09;;;;;;;3.22;2.03;;;;;;;26.02;37.17;101306.47;4859855;29;20619;-81
2022/06/04 11:11:53;;;;;;;2.50;1.88;;;;;;;26.31;35.94;101294.25;4861246;29;20045;-81
2022/06/04 11:14:39;;;;;;;2.85;2.03;;;;;;;26.25;35.51;101292.06;4855179;29;20056;-81
2022/06/04 11:17:15;;;;;;;3.08;1.98;;;;;;;26.74;34.64;101298.25;4848067;29;20446;-81
2022/06/04 11:20:01;;;;;;;2.80;2.20;;;;;;;26.52;33.78;101299.94;4843255;29;20049;-82
2022/06/04 11:22:39;;;;;;;4.47;2.13;;;;;;;26.13;33.19;101289.41;4854953;29;20059;-81
2022/06/04 11:25:24;;;;;;;6.20;2.15;;;;;;;26.28;31.34;101285.53;4851620;29;20049;-83
2022/06/04 11:28:00;;;;;;;2.42;1.77;;;;;;;26.33;31.61;101284.19;4873309;29;20033;-80
2022/06/04 11:30:44;;;;;;;2.60;1.85;;;;;;;26.51;32.01;101289.22;4840020;29;20492;-81
2022/06/04 11:33:29;;;;;;;4.70;2.28;;;;;;;26.05;31.93;101282.72;4876036;29;20098;-81
2022/06/04 11:36:08;;;;;;;2.22;1.60;;;;;;;26.21;32.16;101295.97;4858045;29;20049;-81
2022/06/04 11:38:43;;;;;;;1.90;1.70;;;;;;;26.33;33.16;101289.63;4867718;29;20056;-81
2022/06/04 11:41:17;;;;;;;2.85;2.10;;;;;;;26.55;33.36;101294.25;4857515;29;20037;-81
2022/06/04 11:43:53;;;;;;;2.30;1.60;;;;;;;26.61;32.22;101298.34;4870212;29;20040;-80
2022/06/04 11:46:38;;;;;;;1.98;1.77;;;;;;;26.42;33.01;101292.63;4856473;29;20049;-82
2022/06/04 11:49:18;;;;;;;2.28;2.08;;;;;;;26.62;32.29;101294.66;4869608;29;20051;-82
2022/06/04 11:52:22;;;;;;;4.25;1.73;;;;;;;26.20;32.42;101279.81;4873183;29;20052;-81
2022/06/04 11:55:02;;;;;;;2.10;1.90;;;;;;;26.59;33.80;101286.78;4869500;29;20066;-81
2022/06/04 11:57:36;;;;;;;3.70;1.55;;;;;;;26.75;32.60;101281.03;4839391;29;20278;-81
2022/06/04 12:00:32;;;;;;;8.63;2.25;;;;;;;26.36;31.77;101291.22;4824552;29;20041;-81
2022/06/04 12:03:14;;;;;;;2.35;1.80;;;;;;;25.85;32.78;101283.34;4875717;29;20732;-81
2022/06/04 12:06:30;;;;;;;2.40;2.20;;;;;;;25.69;34.88;101289.00;4852692;29;20695;-80
2022/06/04 12:09:20;;;;;;;2.20;2.00;;;;;;;25.65;33.45;101294.78;4832870;29;20085;-80
2022/06/04 12:12:06;;;;;;;2.88;2.10;;;;;;;25.76;33.37;101295.72;4862704;29;20052;-81
2022/06/04 12:14:42;;;;;;;2.90;1.70;;;;;;;25.88;33.20;101302.06;4853014;29;20045;-80
2022/06/04 12:17:24;;;;;;;3.17;1.85;;;;;;;25.80;33.80;101308.03;4855753;29;20041;-80
2022/06/04 12:25:45;;;;;;;2.75;1.70;;;;;;;24.83;36.47;101294.31;4853998;29;20291;-80
2022/06/04 12:28:26;;;;;;;2.38;2.17;;;;;;;25.08;36.90;101298.00;4837670;29;20447;-81
2022/06/04 12:30:53;;;;;;;2.78;1.90;;;;;;;24.96;36.67;101291.59;4834446;29;20058;-80
2022/06/04 12:33:28;;;;;;;2.20;1.77;;;;;;;25.28;36.35;101305.56;4837872;29;20120;-80
2022/06/04 12:36:06;;;;;;;3.60;1.95;;;;;;;25.27;35.19;101310.09;4823786;29;20086;-78